Time;durP1;ratioP1;P1;durP2;ratioP2;P2;SDS_P1;SDS_P2;PMS_P1;PMS_P2;Temp;Humidity;BMP_temperature;BMP_pressure;BME280_temperature;BME280_humidity;BME280_pressure;Samples;Min_cycle;Max_cycle;Signal;HPM_P1;HPM_P2
2022/09/26 00:04:37;;;;;;;0.00;0.00;;;;;;;;;;10406406;28;20436;-78
2022/09/26 00:09:38;;;;;;;0.10;0.10;;;;;;;;;;10404472;28;20222;-77
2022/09/26 00:14:39;;;;;;;0.00;0.00;;;;;;;;;;10405635;28;20207;-77
2022/09/26 00:19:40;;;;;;;0.47;0.47;;;;;;;;;;10348509;28;20361;-78
2022/09/26 00:24:41;;;;;;;0.00;0.00;;;;;;;;;;10383513;28;20222;-77
2022/09/26 00:29:42;;;;;;;0.05;0.05;;;;;;;;;;10404104;28;20769;-78
2022/09/26 00:34:43;;;;;;;0.10;0.10;;;;;;;;;;10401805;28;20298;-77
2022/09/26 00:39:47;;;;;;;0.25;0.25;;;;;;;;;;10404538;28;20320;-77
2022/09/26 00:44:53;;;;;;;0.10;0.10;;;;;;;;;;10400300;28;21023;-78
2022/09/26 00:49:59;;;;;;;0.20;0.20;;;;;;;;;;10401866;28;20294;-78
2022/09/26 00:55:01;;;;;;;0.10;0.10;;;;;;;;;;10406750;28;20219;-77
2022/09/26 01:00:06;;;;;;;0.00;0.00;;;;;;;;;;10395299;28;20296;-77
2022/09/26 01:05:07;;;;;;;0.10;0.10;;;;;;;;;;10401379;28;20218;-77
2022/09/26 01:10:09;;;;;;;0.38;0.38;;;;;;;;;;10404323;28;20261;-77
2022/09/26 01:15:12;;;;;;;0.43;0.40;;;;;;;;;;10397214;28;20226;-78
2022/09/26 01:20:24;;;;;;;0.10;0.10;;;;;;;;;;10401195;28;20710;-77
2022/09/26 01:25:36;;;;;;;0.20;0.20;;;;;;;;;;10396913;28;20264;-77
2022/09/26 01:30:43;;;;;;;0.10;0.10;;;;;;;;;;10399124;28;20239;-77
2022/09/26 01:35:58;;;;;;;0.10;0.10;;;;;;;;;;10400974;28;20295;-77
2022/09/26 01:41:01;;;;;;;0.20;0.20;;;;;;;;;;10397491;28;21021;-77
2022/09/26 01:46:10;;;;;;;0.22;0.22;;;;;;;;;;10397369;28;20226;-77
2022/09/26 01:51:14;;;;;;;0.47;0.47;;;;;;;;;;10397129;28;20338;-77
2022/09/26 01:56:20;;;;;;;1.45;1.38;;;;;;;;;;10376478;28;20791;-77
2022/09/26 02:01:22;;;;;;;0.10;0.10;;;;;;;;;;10399006;28;20695;-77
2022/09/26 02:06:30;;;;;;;0.40;0.40;;;;;;;;;;10405998;28;20734;-78
2022/09/26 02:11:31;;;;;;;0.15;0.15;;;;;;;;;;10396366;28;20226;-76
2022/09/26 02:16:38;;;;;;;0.10;0.10;;;;;;;;;;10406498;28;20800;-77
2022/09/26 02:21:40;;;;;;;0.10;0.10;;;;;;;;;;10405532;28;20260;-77
2022/09/26 02:26:41;;;;;;;0.20;0.20;;;;;;;;;;10404551;28;20231;-77
2022/09/26 02:31:51;;;;;;;0.08;0.08;;;;;;;;;;10400650;28;20502;-77
2022/09/26 02:36:54;;;;;;;0.10;0.10;;;;;;;;;;10414300;28;21277;-77
2022/09/26 02:42:01;;;;;;;0.15;0.10;;;;;;;;;;10396576;28;20246;-77
2022/09/26 02:47:06;;;;;;;0.52;0.10;;;;;;;;;;10412523;28;20242;-77
2022/09/26 02:52:24;;;;;;;0.20;0.20;;;;;;;;;;10410353;28;20579;-77
2022/09/26 02:57:30;;;;;;;0.20;0.20;;;;;;;;;;10413544;28;20211;-78
2022/09/26 03:02:53;;;;;;;0.30;0.30;;;;;;;;;;10415770;28;21042;-78
2022/09/26 03:08:03;;;;;;;0.30;0.30;;;;;;;;;;10422366;28;21095;-78
2022/09/26 03:13:06;;;;;;;0.30;0.30;;;;;;;;;;10415112;28;20296;-78
2022/09/26 03:18:10;;;;;;;1.90;0.15;;;;;;;;;;10388684;28;20585;-78
2022/09/26 03:23:11;;;;;;;0.30;0.10;;;;;;;;;;10409566;28;20212;-78
2022/09/26 03:28:13;;;;;;;0.20;0.20;;;;;;;;;;10390590;28;20283;-77
2022/09/26 03:33:14;;;;;;;0.10;0.10;;;;;;;;;;10389562;28;20203;-78
2022/09/26 03:38:16;;;;;;;0.20;0.20;;;;;;;;;;10391219;28;20954;-77
2022/09/26 03:43:24;;;;;;;2.58;0.13;;;;;;;;;;10387567;28;20222;-77
2022/09/26 03:48:26;;;;;;;0.10;0.10;;;;;;;;;;10388589;28;20223;-77
2022/09/26 03:53:30;;;;;;;0.13;0.13;;;;;;;;;;10392720;28;20199;-77
2022/09/26 03:58:31;;;;;;;0.40;0.40;;;;;;;;;;10398350;28;20218;-77
2022/09/26 04:03:33;;;;;;;0.47;0.47;;;;;;;;;;10390578;28;20210;-78
2022/09/26 04:08:40;;;;;;;0.00;0.00;;;;;;;;;;10363449;28;20239;-78
2022/09/26 04:13:42;;;;;;;0.20;0.13;;;;;;;;;;10366093;28;20322;-78
2022/09/26 04:18:44;;;;;;;0.20;0.20;;;;;;;;;;10345923;28;20555;-78
2022/09/26 04:23:45;;;;;;;0.13;0.13;;;;;;;;;;10355414;28;20216;-78
2022/09/26 04:28:50;;;;;;;0.10;0.10;;;;;;;;;;10351925;28;20226;-78
2022/09/26 04:33:56;;;;;;;0.10;0.10;;;;;;;;;;10360991;28;20266;-77
2022/09/26 04:38:59;;;;;;;0.20;0.20;;;;;;;;;;10406130;28;20221;-77
2022/09/26 04:44:00;;;;;;;0.10;0.10;;;;;;;;;;10367811;28;20258;-77
2022/09/26 04:49:03;;;;;;;0.00;0.00;;;;;;;;;;10350648;28;20699;-78
2022/09/26 04:54:04;;;;;;;0.20;0.20;;;;;;;;;;10388438;28;21378;-76
2022/09/26 04:59:12;;;;;;;0.00;0.00;;;;;;;;;;10348136;28;20215;-77
2022/09/26 05:04:23;;;;;;;0.20;0.20;;;;;;;;;;10346032;28;20210;-77
2022/09/26 05:09:24;;;;;;;0.00;0.00;;;;;;;;;;10350336;28;20284;-76
2022/09/26 05:14:35;;;;;;;0.10;0.10;;;;;;;;;;10350123;28;20441;-77
2022/09/26 05:19:37;;;;;;;0.00;0.00;;;;;;;;;;10357604;28;20230;-77
2022/09/26 05:30:15;;;;;;;0.15;0.15;;;;;;;;;;10385582;28;20215;-77
2022/09/26 05:35:16;;;;;;;0.43;0.10;;;;;;;;;;10404937;28;20269;-77
2022/09/26 05:45:38;;;;;;;0.10;0.10;;;;;;;;;;10402169;28;20231;-77
2022/09/26 05:50:42;;;;;;;0.08;0.08;;;;;;;;;;10380691;28;20254;-78
2022/09/26 05:55:47;;;;;;;0.17;0.17;;;;;;;;;;10399709;28;20219;-78
2022/09/26 06:01:06;;;;;;;0.63;0.63;;;;;;;;;;10384301;28;20721;-77
2022/09/26 06:06:09;;;;;;;0.00;0.00;;;;;;;;;;10378975;28;20972;-77
2022/09/26 06:11:12;;;;;;;1.08;1.08;;;;;;;;;;10385019;28;20231;-78
2022/09/26 06:16:16;;;;;;;0.10;0.10;;;;;;;;;;10395714;28;20210;-78
2022/09/26 06:21:18;;;;;;;0.15;0.15;;;;;;;;;;10381871;28;20345;-77
2022/09/26 06:26:23;;;;;;;0.28;0.28;;;;;;;;;;10381443;28;20228;-78
2022/09/26 06:31:25;;;;;;;1.98;0.47;;;;;;;;;;10370281;28;20764;-77
2022/09/26 06:36:45;;;;;;;0.22;0.22;;;;;;;;;;10390032;28;20474;-77
2022/09/26 06:41:47;;;;;;;0.10;0.10;;;;;;;;;;10395576;28;20211;-77
2022/09/26 06:47:06;;;;;;;0.15;0.15;;;;;;;;;;10408159;28;20211;-77
2022/09/26 06:52:12;;;;;;;3.65;0.13;;;;;;;;;;10393509;28;20704;-77
2022/09/26 06:57:14;;;;;;;0.00;0.00;;;;;;;;;;10406209;28;20242;-77
2022/09/26 07:02:15;;;;;;;0.00;0.00;;;;;;;;;;10393318;28;20211;-77
2022/09/26 07:07:42;;;;;;;0.15;0.15;;;;;;;;;;10395940;28;20217;-77
2022/09/26 07:12:48;;;;;;;8.00;0.20;;;;;;;;;;10389648;28;20733;-77
2022/09/26 07:17:50;;;;;;;0.20;0.10;;;;;;;;;;10383542;28;20645;-78
2022/09/26 07:23:15;;;;;;;0.22;0.22;;;;;;;;;;10406302;28;20215;-77
2022/09/26 07:28:16;;;;;;;0.00;0.00;;;;;;;;;;10371285;28;20265;-78
2022/09/26 07:33:21;;;;;;;0.00;0.00;;;;;;;;;;10367188;28;20209;-78
2022/09/26 07:38:25;;;;;;;0.00;0.00;;;;;;;;;;10381005;28;20235;-78
2022/09/26 07:43:28;;;;;;;0.10;0.10;;;;;;;;;;10420009;28;20218;-78
2022/09/26 07:54:07;;;;;;;0.10;0.10;;;;;;;;;;10367130;28;20611;-78
2022/09/26 07:59:44;;;;;;;0.40;0.40;;;;;;;;;;10367947;28;20212;-77
2022/09/26 08:05:18;;;;;;;0.08;0.08;;;;;;;;;;10367025;28;20739;-77
2022/09/26 08:10:22;;;;;;;0.00;0.00;;;;;;;;;;10395719;28;20231;-78
2022/09/26 08:15:42;;;;;;;0.10;0.10;;;;;;;;;;10407269;28;20461;-78
2022/09/26 08:20:49;;;;;;;0.10;0.10;;;;;;;;;;10406742;28;20241;-78
2022/09/26 08:25:50;;;;;;;0.00;0.00;;;;;;;;;;10412018;28;20211;-78
2022/09/26 08:31:07;;;;;;;0.00;0.00;;;;;;;;;;10397210;28;20241;-78
2022/09/26 08:36:09;;;;;;;0.17;0.17;;;;;;;;;;10406630;28;20295;-78
2022/09/26 08:42:00;;;;;;;0.10;0.10;;;;;;;;;;10396552;28;20211;-78
2022/09/26 08:47:16;;;;;;;0.08;0.08;;;;;;;;;;10390346;28;20604;-78
2022/09/26 08:52:36;;;;;;;0.17;0.17;;;;;;;;;;10409236;28;20217;-78
2022/09/26 08:57:43;;;;;;;0.00;0.00;;;;;;;;;;10411763;28;20214;-78
2022/09/26 09:02:49;;;;;;;0.00;0.00;;;;;;;;;;10409954;28;20517;-78
2022/09/26 09:07:53;;;;;;;0.10;0.10;;;;;;;;;;10412149;28;20215;-78
2022/09/26 09:13:00;;;;;;;0.10;0.10;;;;;;;;;;10402748;28;20317;-78
2022/09/26 09:18:14;;;;;;;0.10;0.10;;;;;;;;;;10389687;28;20245;-78
2022/09/26 09:23:46;;;;;;;0.00;0.00;;;;;;;;;;10396291;28;20557;-78
2022/09/26 09:29:06;;;;;;;0.10;0.10;;;;;;;;;;10376429;28;20651;-78
2022/09/26 09:34:15;;;;;;;0.10;0.10;;;;;;;;;;10375924;28;20217;-78
2022/09/26 09:39:40;;;;;;;0.00;0.00;;;;;;;;;;10370016;28;20218;-79
2022/09/26 09:45:00;;;;;;;0.10;0.10;;;;;;;;;;10377142;28;20523;-78
2022/09/26 09:50:02;;;;;;;0.00;0.00;;;;;;;;;;10376447;28;20204;-78
2022/09/26 09:55:14;;;;;;;1.45;1.17;;;;;;;;;;10384881;28;20206;-78
2022/09/26 10:00:21;;;;;;;0.22;0.20;;;;;;;;;;10387813;28;20283;-78
2022/09/26 10:05:43;;;;;;;1.48;0.10;;;;;;;;;;10376175;28;20206;-79
2022/09/26 10:11:06;;;;;;;0.10;0.10;;;;;;;;;;10393536;28;20227;-79
2022/09/26 10:16:27;;;;;;;0.10;0.10;;;;;;;;;;10387516;28;20855;-78
2022/09/26 10:21:38;;;;;;;0.05;0.05;;;;;;;;;;10383405;28;20273;-80
2022/09/26 10:26:39;;;;;;;0.10;0.10;;;;;;;;;;10402480;28;20222;-81
2022/09/26 10:31:45;;;;;;;0.00;0.00;;;;;;;;;;10377873;28;20226;-79
2022/09/26 10:36:50;;;;;;;0.15;0.15;;;;;;;;;;10381297;28;22785;-78
2022/09/26 10:41:56;;;;;;;0.08;0.08;;;;;;;;;;10395358;28;20227;-81
2022/09/26 10:46:59;;;;;;;0.17;0.17;;;;;;;;;;10376821;28;20531;-79
2022/09/26 10:52:26;;;;;;;0.10;0.10;;;;;;;;;;10393823;28;20231;-79
2022/09/26 10:57:32;;;;;;;0.30;0.30;;;;;;;;;;10372877;28;20301;-79
2022/09/26 11:02:37;;;;;;;0.13;0.13;;;;;;;;;;10395939;28;20207;-79
2022/09/26 11:07:41;;;;;;;1.08;0.38;;;;;;;;;;10372713;28;20219;-79
2022/09/26 11:13:19;;;;;;;0.00;0.00;;;;;;;;;;10341888;28;20211;-79
2022/09/26 11:18:29;;;;;;;0.10;0.10;;;;;;;;;;10354910;28;20797;-80
2022/09/26 11:23:49;;;;;;;0.10;0.10;;;;;;;;;;10361899;28;20294;-78
2022/09/26 11:29:03;;;;;;;0.10;0.10;;;;;;;;;;10323104;28;20251;-79
2022/09/26 11:34:30;;;;;;;0.00;0.00;;;;;;;;;;10301876;28;20209;-79
2022/09/26 11:39:49;;;;;;;0.10;0.10;;;;;;;;;;10324467;28;20221;-79
2022/09/26 11:44:51;;;;;;;0.13;0.13;;;;;;;;;;10333605;28;20297;-79
2022/09/26 11:49:52;;;;;;;0.00;0.00;;;;;;;;;;10318449;28;20334;-78
2022/09/26 11:55:23;;;;;;;0.00;0.00;;;;;;;;;;10320006;28;20579;-80
2022/09/26 12:00:28;;;;;;;0.32;0.32;;;;;;;;;;10365942;28;20329;-78
2022/09/26 12:05:35;;;;;;;0.10;0.10;;;;;;;;;;10370882;28;20223;-79
2022/09/26 12:11:00;;;;;;;0.15;0.15;;;;;;;;;;10367519;28;20223;-79
2022/09/26 12:16:11;;;;;;;1.27;0.40;;;;;;;;;;10407269;28;20463;-78
2022/09/26 12:21:31;;;;;;;0.00;0.00;;;;;;;;;;10423062;28;20509;-79
2022/09/26 12:26:50;;;;;;;0.00;0.00;;;;;;;;;;10405468;28;20219;-79
2022/09/26 12:31:59;;;;;;;0.00;0.00;;;;;;;;;;10404397;28;20366;-79
2022/09/26 12:37:13;;;;;;;0.30;0.30;;;;;;;;;;10399998;28;20592;-78
2022/09/26 12:42:24;;;;;;;0.00;0.00;;;;;;;;;;10403927;28;20250;-79
2022/09/26 12:47:42;;;;;;;0.00;0.00;;;;;;;;;;10401245;28;20230;-79
2022/09/26 12:52:55;;;;;;;0.00;0.00;;;;;;;;;;10400640;28;20261;-78
2022/09/26 12:58:20;;;;;;;0.00;0.00;;;;;;;;;;10403718;28;20216;-79
2022/09/26 13:03:25;;;;;;;0.10;0.10;;;;;;;;;;10398712;28;20335;-78
2022/09/26 13:08:39;;;;;;;0.00;0.00;;;;;;;;;;10397593;28;21141;-78
2022/09/26 13:13:44;;;;;;;0.00;0.00;;;;;;;;;;10398724;28;20211;-78
2022/09/26 13:18:50;;;;;;;0.00;0.00;;;;;;;;;;10402211;28;21040;-79
2022/09/26 13:23:54;;;;;;;0.00;0.00;;;;;;;;;;10399922;28;20535;-79
2022/09/26 13:29:16;;;;;;;0.00;0.00;;;;;;;;;;10402628;28;20222;-78
2022/09/26 13:34:22;;;;;;;0.00;0.00;;;;;;;;;;10401703;28;20246;-78
2022/09/26 13:39:23;;;;;;;0.00;0.00;;;;;;;;;;10406199;28;20218;-79
2022/09/26 13:44:33;;;;;;;0.00;0.00;;;;;;;;;;10398328;28;20234;-79
2022/09/26 13:49:51;;;;;;;0.20;0.20;;;;;;;;;;10401103;28;20616;-79
2022/09/26 13:54:52;;;;;;;0.00;0.00;;;;;;;;;;10405524;28;20215;-78
2022/09/26 13:59:53;;;;;;;0.00;0.00;;;;;;;;;;10382624;28;20699;-79
2022/09/26 14:05:00;;;;;;;0.00;0.00;;;;;;;;;;10399121;28;20214;-80
2022/09/26 14:10:01;;;;;;;0.47;0.08;;;;;;;;;;10340557;28;1183718;-79
2022/09/26 14:15:16;;;;;;;0.00;0.00;;;;;;;;;;10397833;28;20242;-79
2022/09/26 14:20:20;;;;;;;0.00;0.00;;;;;;;;;;10403667;28;20306;-79
2022/09/26 14:25:40;;;;;;;0.10;0.10;;;;;;;;;;10398531;28;20679;-78
2022/09/26 14:31:01;;;;;;;0.00;0.00;;;;;;;;;;10405315;28;20230;-79
2022/09/26 14:36:24;;;;;;;0.00;0.00;;;;;;;;;;10413742;28;20246;-78
2022/09/26 14:41:29;;;;;;;0.10;0.10;;;;;;;;;;10407609;28;20215;-79
2022/09/26 14:46:32;;;;;;;0.40;0.40;;;;;;;;;;10392638;28;20221;-79
2022/09/26 14:51:36;;;;;;;0.20;0.20;;;;;;;;;;10391543;28;20779;-79
2022/09/26 14:56:41;;;;;;;5.82;1.70;;;;;;;;;;10392672;28;20215;-79
2022/09/26 15:01:43;;;;;;;0.00;0.00;;;;;;;;;;10391963;28;20687;-79
2022/09/26 15:06:47;;;;;;;0.00;0.00;;;;;;;;;;10396309;28;20237;-78
2022/09/26 15:11:51;;;;;;;0.00;0.00;;;;;;;;;;10384058;28;20268;-78
2022/09/26 15:16:54;;;;;;;0.00;0.00;;;;;;;;;;10396907;28;20661;-78
2022/09/26 15:22:16;;;;;;;0.00;0.00;;;;;;;;;;10395141;28;20218;-78
2022/09/26 15:27:28;;;;;;;0.10;0.10;;;;;;;;;;10386896;28;20215;-78
2022/09/26 15:32:30;;;;;;;0.08;0.08;;;;;;;;;;10394322;28;20293;-78
2022/09/26 15:37:32;;;;;;;0.00;0.00;;;;;;;;;;10381818;28;20513;-78
2022/09/26 15:47:57;;;;;;;0.00;0.00;;;;;;;;;;10388668;28;20229;-78
2022/09/26 15:53:07;;;;;;;0.00;0.00;;;;;;;;;;10396435;28;20649;-77
2022/09/26 15:58:11;;;;;;;0.00;0.00;;;;;;;;;;10402209;28;20364;-77
2022/09/26 16:03:18;;;;;;;0.03;0.03;;;;;;;;;;10401373;28;20695;-79
2022/09/26 16:08:23;;;;;;;0.00;0.00;;;;;;;;;;10394212;28;20219;-77
2022/09/26 16:13:26;;;;;;;0.00;0.00;;;;;;;;;;10395570;28;20227;-77
2022/09/26 16:18:27;;;;;;;0.10;0.10;;;;;;;;;;10390503;28;20675;-77
2022/09/26 16:23:28;;;;;;;0.00;0.00;;;;;;;;;;10391893;28;20214;-78
2022/09/26 16:28:41;;;;;;;0.00;0.00;;;;;;;;;;10396446;28;20215;-78
2022/09/26 16:33:48;;;;;;;0.00;0.00;;;;;;;;;;10391788;28;20212;-78
2022/09/26 16:38:50;;;;;;;0.10;0.10;;;;;;;;;;10397941;28;20215;-77
2022/09/26 16:43:53;;;;;;;1.10;1.10;;;;;;;;;;10396126;28;20218;-78
2022/09/26 16:48:55;;;;;;;0.00;0.00;;;;;;;;;;10400722;28;20223;-78
2022/09/26 16:54:02;;;;;;;0.00;0.00;;;;;;;;;;10413004;28;20211;-77
2022/09/26 16:59:04;;;;;;;0.10;0.10;;;;;;;;;;10410746;28;20244;-78
2022/09/26 17:04:10;;;;;;;0.00;0.00;;;;;;;;;;10379481;28;20211;-78
2022/09/26 17:09:14;;;;;;;1.55;0.10;;;;;;;;;;10402386;28;20255;-78
2022/09/26 17:14:18;;;;;;;0.00;0.00;;;;;;;;;;10386251;28;20640;-80
2022/09/26 17:19:20;;;;;;;0.10;0.10;;;;;;;;;;10397433;28;20238;-80
2022/09/26 17:24:23;;;;;;;0.10;0.10;;;;;;;;;;10400217;28;20211;-80
2022/09/26 17:29:30;;;;;;;0.10;0.10;;;;;;;;;;10399571;28;20696;-78
2022/09/26 17:34:31;;;;;;;1.17;0.32;;;;;;;;;;10396237;28;20237;-79
2022/09/26 17:39:32;;;;;;;0.00;0.00;;;;;;;;;;10396923;28;20227;-78
2022/09/26 17:44:35;;;;;;;0.00;0.00;;;;;;;;;;10395083;28;20210;-78
2022/09/26 17:49:37;;;;;;;0.10;0.10;;;;;;;;;;10395956;28;20222;-78
2022/09/26 17:54:43;;;;;;;0.20;0.15;;;;;;;;;;10402615;28;20632;-78
2022/09/26 17:59:44;;;;;;;0.20;0.10;;;;;;;;;;10398989;28;20241;-78
2022/09/26 18:04:45;;;;;;;0.00;0.00;;;;;;;;;;10400595;28;20219;-79
2022/09/26 18:09:46;;;;;;;0.03;0.03;;;;;;;;;;10401766;28;20783;-78
2022/09/26 18:14:48;;;;;;;0.10;0.10;;;;;;;;;;10389098;28;20199;-78
2022/09/26 18:19:49;;;;;;;0.00;0.00;;;;;;;;;;10398412;28;20253;-78
2022/09/26 18:24:51;;;;;;;0.00;0.00;;;;;;;;;;10388770;28;20219;-78
2022/09/26 18:29:52;;;;;;;0.00;0.00;;;;;;;;;;10392930;28;20227;-78
2022/09/26 18:34:53;;;;;;;0.00;0.00;;;;;;;;;;10399393;28;20706;-78
2022/09/26 18:39:54;;;;;;;0.15;0.15;;;;;;;;;;10396139;28;20613;-79
2022/09/26 18:45:02;;;;;;;0.38;0.38;;;;;;;;;;10404865;28;20286;-79
2022/09/26 18:50:04;;;;;;;0.25;0.25;;;;;;;;;;10407800;28;20237;-79
2022/09/26 19:00:31;;;;;;;1.08;0.10;;;;;;;;;;10411847;28;20226;-79
2022/09/26 19:05:32;;;;;;;0.40;0.40;;;;;;;;;;10398643;28;20257;-78
2022/09/26 19:10:33;;;;;;;0.10;0.10;;;;;;;;;;10405925;28;20231;-78
2022/09/26 19:15:34;;;;;;;0.10;0.10;;;;;;;;;;10411152;28;20206;-78
2022/09/26 19:20:35;;;;;;;0.00;0.00;;;;;;;;;;10395471;28;21125;-77
2022/09/26 19:25:36;;;;;;;0.10;0.10;;;;;;;;;;10395124;28;20597;-78
2022/09/26 19:30:37;;;;;;;0.15;0.15;;;;;;;;;;10396975;28;20225;-78
2022/09/26 19:35:38;;;;;;;0.00;0.00;;;;;;;;;;10397067;28;20284;-78
2022/09/26 19:40:40;;;;;;;0.10;0.10;;;;;;;;;;10398237;28;20272;-78
2022/09/26 19:45:42;;;;;;;0.00;0.00;;;;;;;;;;10404400;28;20333;-78
2022/09/26 19:50:43;;;;;;;0.17;0.17;;;;;;;;;;10392001;28;20783;-77
2022/09/26 19:55:47;;;;;;;2.35;0.30;;;;;;;;;;10393071;28;20663;-78
2022/09/26 20:00:49;;;;;;;0.10;0.10;;;;;;;;;;10399116;28;20799;-77
2022/09/26 20:05:50;;;;;;;0.17;0.10;;;;;;;;;;10408129;28;20217;-77
2022/09/26 20:10:53;;;;;;;0.75;0.65;;;;;;;;;;10406969;28;20231;-77
2022/09/26 20:15:55;;;;;;;0.00;0.00;;;;;;;;;;10408402;28;21166;-78
2022/09/26 20:20:56;;;;;;;0.00;0.00;;;;;;;;;;10401008;28;20868;-78
2022/09/26 20:25:57;;;;;;;0.70;0.35;;;;;;;;;;10404444;28;20595;-78
2022/09/26 20:30:58;;;;;;;0.75;0.25;;;;;;;;;;10397732;28;20637;-78
2022/09/26 20:36:02;;;;;;;0.00;0.00;;;;;;;;;;10401497;28;20247;-77
2022/09/26 20:41:08;;;;;;;0.20;0.20;;;;;;;;;;10399787;28;20224;-78
2022/09/26 20:46:10;;;;;;;0.25;0.25;;;;;;;;;;10383802;28;20215;-77
2022/09/26 20:51:16;;;;;;;0.03;0.03;;;;;;;;;;10383781;28;20223;-78
2022/09/26 20:56:19;;;;;;;0.00;0.00;;;;;;;;;;10407520;28;20219;-78
2022/09/26 21:01:21;;;;;;;0.10;0.10;;;;;;;;;;10407532;28;20260;-77
2022/09/26 21:06:31;;;;;;;0.00;0.00;;;;;;;;;;10398316;28;20250;-78
2022/09/26 21:11:32;;;;;;;0.03;0.03;;;;;;;;;;10401881;28;20973;-77
2022/09/26 21:16:33;;;;;;;0.10;0.10;;;;;;;;;;10402825;28;20221;-78
2022/09/26 21:21:34;;;;;;;0.15;0.10;;;;;;;;;;10402358;28;20214;-77
2022/09/26 21:26:46;;;;;;;0.00;0.00;;;;;;;;;;10401211;28;20349;-78
2022/09/26 21:31:49;;;;;;;0.65;0.65;;;;;;;;;;10405079;28;20742;-78
2022/09/26 21:36:51;;;;;;;0.00;0.00;;;;;;;;;;10391063;28;20226;-78
2022/09/26 21:41:53;;;;;;;1.10;0.10;;;;;;;;;;10401571;28;20211;-78
2022/09/26 21:46:54;;;;;;;0.00;0.00;;;;;;;;;;10400974;28;20224;-77
2022/09/26 21:51:57;;;;;;;0.00;0.00;;;;;;;;;;10399614;28;20229;-76
2022/09/26 21:57:03;;;;;;;0.52;0.52;;;;;;;;;;10380939;28;20212;-76
2022/09/26 22:02:04;;;;;;;0.10;0.10;;;;;;;;;;10396190;28;22082;-76
2022/09/26 22:07:05;;;;;;;0.00;0.00;;;;;;;;;;10392190;28;20866;-76
2022/09/26 22:12:06;;;;;;;0.03;0.03;;;;;;;;;;10396228;28;20226;-75
2022/09/26 22:17:07;;;;;;;0.00;0.00;;;;;;;;;;10402577;28;20226;-76
2022/09/26 22:22:09;;;;;;;0.00;0.00;;;;;;;;;;10392037;28;20218;-77
2022/09/26 22:27:10;;;;;;;0.00;0.00;;;;;;;;;;10404833;28;20245;-76
2022/09/26 22:32:12;;;;;;;0.00;0.00;;;;;;;;;;10409743;28;20246;-77
2022/09/26 22:37:13;;;;;;;0.43;0.43;;;;;;;;;;10406342;28;20683;-76
2022/09/26 22:42:14;;;;;;;1.15;0.20;;;;;;;;;;10409154;28;20696;-77
2022/09/26 22:47:15;;;;;;;0.00;0.00;;;;;;;;;;10384765;28;20207;-77
2022/09/26 22:52:16;;;;;;;0.00;0.00;;;;;;;;;;10403238;28;21399;-76
2022/09/26 22:57:17;;;;;;;0.10;0.10;;;;;;;;;;10407595;28;20798;-77
2022/09/26 23:02:18;;;;;;;0.00;0.00;;;;;;;;;;10409890;28;20198;-75
2022/09/26 23:07:20;;;;;;;0.35;0.20;;;;;;;;;;10406422;28;20379;-77
2022/09/26 23:12:21;;;;;;;0.00;0.00;;;;;;;;;;10406516;28;20333;-76
2022/09/26 23:17:22;;;;;;;0.00;0.00;;;;;;;;;;10406447;28;20219;-76
2022/09/26 23:22:23;;;;;;;0.00;0.00;;;;;;;;;;10409985;28;20222;-77
2022/09/26 23:27:25;;;;;;;0.77;0.20;;;;;;;;;;10410082;28;20226;-78
2022/09/26 23:32:26;;;;;;;0.00;0.00;;;;;;;;;;10406245;28;20231;-78
2022/09/26 23:37:27;;;;;;;0.30;0.30;;;;;;;;;;10405811;28;20225;-78
2022/09/26 23:42:31;;;;;;;0.00;0.00;;;;;;;;;;10410816;28;20225;-78
2022/09/26 23:47:33;;;;;;;0.10;0.10;;;;;;;;;;10410322;28;20225;-79
2022/09/26 23:52:34;;;;;;;0.10;0.10;;;;;;;;;;10409793;28;20239;-80
2022/09/26 23:57:35;;;;;;;0.13;0.13;;;;;;;;;;10423295;28;20302;-79
